Time;durP1;ratioP1;P1;durP2;ratioP2;P2;SDS_P1;SDS_P2;PMS_P1;PMS_P2;Temp;Humidity;BMP_temperature;BMP_pressure;BME280_temperature;BME280_humidity;BME280_pressure;Samples;Min_cycle;Max_cycle;Signal;HPM_P1;HPM_P2
2021/06/08 00:00:48;;;;;;;;;;;;;;;;;;2144574;66;1135;-68
2021/06/08 00:03:13;;;;;;;;;;;;;;;;;;2145681;66;1295;-70
2021/06/08 00:05:38;;;;;;;;;;;;;;;;;;2142530;66;1303;-69
2021/06/08 00:08:04;;;;;;;;;;;;;;;;;;2141227;59;1916;-68
2021/06/08 00:10:29;;;;;;;;;;;;;;;;;;2145250;66;1194;-69
2021/06/08 00:12:54;;;;;;;;;;;;;;;;;;2144809;66;1212;-69
2021/06/08 00:15:20;;;;;;;;;;;;;;;;;;2145578;59;1257;-70
2021/06/08 00:17:45;;;;;;;;;;;;;;;;;;2144448;59;1379;-69
2021/06/08 00:20:11;;;;;;;;;;;;;;;;;;2144446;59;1187;-69
2021/06/08 00:22:36;;;;;;;;;;;;;;;;;;2140964;66;1263;-69
2021/06/08 00:25:01;;;;;;;;;;;;;;;;;;2145644;66;1198;-68
2021/06/08 00:27:26;;;;;;;;;;;;;;;;;;2142593;66;1147;-70
2021/06/08 00:29:52;;;;;;;;;;;;;;;;;;2140818;66;1987;-69
2021/06/08 00:32:17;;;;;;;;;;;;;;;;;;2144072;66;1172;-69
2021/06/08 00:34:42;;;;;;;;;;;;;;;;;;2146036;66;1291;-69
2021/06/08 00:37:07;;;;;;;;;;;;;;;;;;2146098;66;1216;-70
2021/06/08 00:39:32;;;;;;;;;;;;;;;;;;2145840;66;1157;-68
2021/06/08 00:41:57;;;;;;;;;;;;;;;;;;2145619;66;1135;-68
2021/06/08 00:44:23;;;;;;;;;;;;;;;;;;2145521;59;1241;-68
2021/06/08 00:46:48;;;;;;;;;;;;;;;;;;2144118;59;1191;-69
2021/06/08 00:49:13;;;;;;;;;;;;;;;;;;2143818;66;1932;-68
2021/06/08 00:51:39;;;;;;;;;;;;;;;;;;2145089;66;1253;-68
2021/06/08 00:54:06;;;;;;;;;;;;;;;;;;2145003;66;1252;-69
2021/06/08 00:56:32;;;;;;;;;;;;;;;;;;2145357;66;1243;-67
2021/06/08 00:58:57;;;;;;;;;;;;;;;;;;2144913;66;1234;-67
2021/06/08 01:01:22;;;;;;;;;;;;;;;;;;2145078;66;1207;-68
2021/06/08 01:03:47;;;;;;;;;;;;;;;;;;2145088;66;1213;-68
2021/06/08 01:06:13;;;;;;;;;;;;;;;;;;2145223;66;1232;-69
2021/06/08 01:08:38;;;;;;;;;;;;;;;;;;2144097;66;1928;-67
2021/06/08 01:11:03;;;;;;;;;;;;;;;;;;2141574;67;1178;-69
2021/06/08 01:13:29;;;;;;;;;;;;;;;;;;2145421;66;1615;-69
2021/06/08 01:15:54;;;;;;;;;;;;;;;;;;2145461;59;1628;-68
2021/06/08 01:18:19;;;;;;;;;;;;;;;;;;2144572;66;1108;-69
2021/06/08 01:20:45;;;;;;;;;;;;;;;;;;2145959;66;1174;-67
2021/06/08 01:23:10;;;;;;;;;;;;;;;;;;2144813;66;1221;-69
2021/06/08 01:25:35;;;;;;;;;;;;;;;;;;2146440;66;1223;-69
2021/06/08 01:28:01;;;;;;;;;;;;;;;;;;2146247;66;1911;-69
2021/06/08 01:30:28;;;;;;;;;;;;;;;;;;2145665;66;1551;-69
2021/06/08 01:32:53;;;;;;;;;;;;;;;;;;2145767;66;1242;-67
2021/06/08 01:35:19;;;;;;;;;;;;;;;;;;2142026;66;1704;-67
2021/06/08 01:37:45;;;;;;;;;;;;;;;;;;2145389;66;1150;-68
2021/06/08 01:40:14;;;;;;;;;;;;;;;;;;2145822;66;1165;-68
2021/06/08 01:42:40;;;;;;;;;;;;;;;;;;2143993;66;1176;-67
2021/06/08 01:45:05;;;;;;;;;;;;;;;;;;2142092;59;1285;-68
2021/06/08 01:47:31;;;;;;;;;;;;;;;;;;2140181;66;1262;-69
2021/06/08 01:49:56;;;;;;;;;;;;;;;;;;2144334;66;1936;-69
2021/06/08 01:52:27;;;;;;;;;;;;;;;;;;2145411;66;1346;-66
2021/06/08 01:54:57;;;;;;;;;;;;;;;;;;2145663;66;1245;-67
2021/06/08 01:57:27;;;;;;;;;;;;;;;;;;2145762;66;1159;-68
2021/06/08 01:59:57;;;;;;;;;;;;;;;;;;2145309;66;1190;-70
2021/06/08 02:02:29;;;;;;;;;;;;;;;;;;2145551;66;1223;-68
2021/06/08 02:05:03;;;;;;;;;;;;;;;;;;2145387;66;1184;-70
2021/06/08 02:07:42;;;;;;;;;;;;;;;;;;2144810;59;1396;-66
2021/06/08 02:10:34;;;;;;;;;;;;;;;;;;2146188;66;2008;-67
2021/06/08 02:13:18;;;;;;;;;;;;;;;;;;2144861;66;1293;-67
2021/06/08 02:15:50;;;;;;;;;;;;;;;;;;2145176;59;1258;-67
2021/06/08 02:18:17;;;;;;;;;;;;;;;;;;2144781;66;1160;-68
2021/06/08 02:20:43;;;;;;;;;;;;;;;;;;2145893;66;1151;-69
2021/06/08 02:23:11;;;;;;;;;;;;;;;;;;2145108;66;1201;-69
2021/06/08 02:25:37;;;;;;;;;;;;;;;;;;2142384;59;1184;-69
2021/06/08 02:28:04;;;;;;;;;;;;;;;;;;2143500;66;1931;-69
2021/06/08 02:30:30;;;;;;;;;;;;;;;;;;2144252;66;1240;-68
2021/06/08 02:32:57;;;;;;;;;;;;;;;;;;2144403;66;1550;-68
2021/06/08 02:35:23;;;;;;;;;;;;;;;;;;2145149;66;1238;-68
2021/06/08 02:37:49;;;;;;;;;;;;;;;;;;2143929;66;1213;-68
2021/06/08 02:40:15;;;;;;;;;;;;;;;;;;2145241;66;1143;-68
2021/06/08 02:42:41;;;;;;;;;;;;;;;;;;2145679;66;1180;-69
2021/06/08 02:45:07;;;;;;;;;;;;;;;;;;2144472;59;1150;-67
2021/06/08 02:47:33;;;;;;;;;;;;;;;;;;2143468;59;1176;-67
2021/06/08 02:49:59;;;;;;;;;;;;;;;;;;2144950;66;1933;-69
2021/06/08 02:52:25;;;;;;;;;;;;;;;;;;2141524;66;1697;-68
2021/06/08 02:54:52;;;;;;;;;;;;;;;;;;2146174;66;1224;-69
2021/06/08 02:57:19;;;;;;;;;;;;;;;;;;2145553;66;1170;-69
2021/06/08 02:59:45;;;;;;;;;;;;;;;;;;2146153;66;1247;-69
2021/06/08 03:02:11;;;;;;;;;;;;;;;;;;2145556;66;1172;-69
2021/06/08 03:04:48;;;;;;;;;;;;;;;;;;2146037;59;1222;-69
2021/06/08 03:07:14;;;;;;;;;;;;;;;;;;2145309;66;1175;-68
2021/06/08 03:10:00;;;;;;;;;;;;;;;;;;2143778;66;1944;-68
2021/06/08 03:12:28;;;;;;;;;;;;;;;;;;2145558;66;1174;-69
2021/06/08 03:14:53;;;;;;;;;;;;;;;;;;2146190;59;2085;-66
2021/06/08 03:17:22;;;;;;;;;;;;;;;;;;2144208;66;1195;-67
2021/06/08 03:19:49;;;;;;;;;;;;;;;;;;2144449;66;1139;-67
2021/06/08 03:22:16;;;;;;;;;;;;;;;;;;2145701;66;1567;-69
2021/06/08 03:24:42;;;;;;;;;;;;;;;;;;2144294;66;1558;-69
2021/06/08 03:27:09;;;;;;;;;;;;;;;;;;2144983;66;1147;-69
2021/06/08 03:29:35;;;;;;;;;;;;;;;;;;2144765;59;1923;-67
2021/06/08 03:32:00;;;;;;;;;;;;;;;;;;2146027;66;1048;-68
2021/06/08 03:34:25;;;;;;;;;;;;;;;;;;2144434;66;1286;-69
2021/06/08 03:36:52;;;;;;;;;;;;;;;;;;2141629;66;1187;-68
2021/06/08 03:39:19;;;;;;;;;;;;;;;;;;2144934;66;1112;-68
2021/06/08 03:41:45;;;;;;;;;;;;;;;;;;2141131;66;1105;-68
2021/06/08 03:44:14;;;;;;;;;;;;;;;;;;2145485;58;1267;-68
2021/06/08 03:46:39;;;;;;;;;;;;;;;;;;2142065;66;1044;-69
2021/06/08 03:49:05;;;;;;;;;;;;;;;;;;2143634;66;1907;-69
2021/06/08 03:51:31;;;;;;;;;;;;;;;;;;2143639;66;1264;-69
2021/06/08 03:53:56;;;;;;;;;;;;;;;;;;2145864;59;1229;-69
2021/06/08 03:56:22;;;;;;;;;;;;;;;;;;2145347;66;1154;-69
2021/06/08 03:58:47;;;;;;;;;;;;;;;;;;2145075;66;1180;-68
2021/06/08 04:01:13;;;;;;;;;;;;;;;;;;2145648;66;1183;-68
2021/06/08 04:03:38;;;;;;;;;;;;;;;;;;2144907;66;1188;-68
2021/06/08 04:06:04;;;;;;;;;;;;;;;;;;2146170;66;1080;-68
2021/06/08 04:08:30;;;;;;;;;;;;;;;;;;2144886;59;1925;-67
2021/06/08 04:10:55;;;;;;;;;;;;;;;;;;2144161;66;1152;-69
2021/06/08 04:13:21;;;;;;;;;;;;;;;;;;2146177;66;1245;-69
2021/06/08 04:15:48;;;;;;;;;;;;;;;;;;2142368;59;1203;-69
2021/06/08 04:18:13;;;;;;;;;;;;;;;;;;2145361;66;1077;-69
2021/06/08 04:20:38;;;;;;;;;;;;;;;;;;2146054;66;1055;-68
2021/06/08 04:23:03;;;;;;;;;;;;;;;;;;2145119;66;1172;-68
2021/06/08 04:25:29;;;;;;;;;;;;;;;;;;2146199;66;1136;-69
2021/06/08 04:27:54;;;;;;;;;;;;;;;;;;2143581;66;1931;-69
2021/06/08 04:30:20;;;;;;;;;;;;;;;;;;2145301;66;1191;-69
2021/06/08 04:32:46;;;;;;;;;;;;;;;;;;2144825;66;1470;-70
2021/06/08 04:35:13;;;;;;;;;;;;;;;;;;2142494;66;1243;-69
2021/06/08 04:37:38;;;;;;;;;;;;;;;;;;2145633;66;1225;-69
2021/06/08 04:40:04;;;;;;;;;;;;;;;;;;2145429;66;1162;-69
2021/06/08 04:42:29;;;;;;;;;;;;;;;;;;2146134;66;1214;-69
2021/06/08 04:44:55;;;;;;;;;;;;;;;;;;2147291;53;1709;-67
2021/06/08 04:47:20;;;;;;;;;;;;;;;;;;2142923;59;1374;-68
2021/06/08 04:49:47;;;;;;;;;;;;;;;;;;2142733;59;1999;-67
2021/06/08 04:52:12;;;;;;;;;;;;;;;;;;2142237;58;1166;-66
2021/06/08 04:54:38;;;;;;;;;;;;;;;;;;2141599;66;1764;-65
2021/06/08 04:57:04;;;;;;;;;;;;;;;;;;2138758;67;1634;-66
2021/06/08 04:59:41;;;;;;;;;;;;;;;;;;2136747;67;1293;-65
2021/06/08 05:02:14;;;;;;;;;;;;;;;;;;2139344;59;1294;-66
2021/06/08 05:04:40;;;;;;;;;;;;;;;;;;2138478;67;1275;-66
2021/06/08 05:07:06;;;;;;;;;;;;;;;;;;2139069;67;1116;-67
2021/06/08 05:09:36;;;;;;;;;;;;;;;;;;2139669;67;1980;-67
2021/06/08 05:12:05;;;;;;;;;;;;;;;;;;2139352;67;1155;-67
2021/06/08 05:14:31;;;;;;;;;;;;;;;;;;2138217;67;1263;-66
2021/06/08 05:16:57;;;;;;;;;;;;;;;;;;2139442;59;1518;-66
2021/06/08 05:19:23;;;;;;;;;;;;;;;;;;2139195;59;1423;-66
2021/06/08 05:21:48;;;;;;;;;;;;;;;;;;2139051;67;1175;-66
2021/06/08 05:24:14;;;;;;;;;;;;;;;;;;2136493;67;1159;-66
2021/06/08 05:26:46;;;;;;;;;;;;;;;;;;2138473;67;1224;-66
2021/06/08 05:29:15;;;;;;;;;;;;;;;;;;2138713;67;1920;-67
2021/06/08 05:31:41;;;;;;;;;;;;;;;;;;2137503;67;1199;-66
2021/06/08 05:34:06;;;;;;;;;;;;;;;;;;2138629;67;1154;-67
2021/06/08 05:36:32;;;;;;;;;;;;;;;;;;2138600;67;1206;-66
2021/06/08 05:38:57;;;;;;;;;;;;;;;;;;2139662;67;1188;-66
2021/06/08 05:41:23;;;;;;;;;;;;;;;;;;2138893;67;1179;-65
2021/06/08 05:43:48;;;;;;;;;;;;;;;;;;2138749;59;1227;-66
2021/06/08 05:46:13;;;;;;;;;;;;;;;;;;2135206;67;1223;-66
2021/06/08 05:48:39;;;;;;;;;;;;;;;;;;2139016;67;1916;-66
2021/06/08 05:51:05;;;;;;;;;;;;;;;;;;2139006;59;1192;-66
2021/06/08 05:53:30;;;;;;;;;;;;;;;;;;2139403;67;1256;-66
2021/06/08 05:55:57;;;;;;;;;;;;;;;;;;2138852;67;1269;-66
2021/06/08 05:58:25;;;;;;;;;;;;;;;;;;2138880;67;1199;-66
2021/06/08 06:00:51;;;;;;;;;;;;;;;;;;2139008;67;1186;-66
2021/06/08 06:03:17;;;;;;;;;;;;;;;;;;2138309;67;1230;-67
2021/06/08 06:05:43;;;;;;;;;;;;;;;;;;2138215;67;1253;-66
2021/06/08 06:08:08;;;;;;;;;;;;;;;;;;2139056;59;1973;-66
2021/06/08 06:10:34;;;;;;;;;;;;;;;;;;2138244;67;1174;-66
2021/06/08 06:13:01;;;;;;;;;;;;;;;;;;2138506;67;1163;-66
2021/06/08 06:15:27;;;;;;;;;;;;;;;;;;2139197;59;1277;-66
2021/06/08 06:17:53;;;;;;;;;;;;;;;;;;2138489;67;1131;-66
2021/06/08 06:20:19;;;;;;;;;;;;;;;;;;2140063;59;1236;-66
2021/06/08 06:22:44;;;;;;;;;;;;;;;;;;2138485;67;1173;-66
2021/06/08 06:25:11;;;;;;;;;;;;;;;;;;2139843;67;1275;-66
2021/06/08 06:27:37;;;;;;;;;;;;;;;;;;2138109;67;1148;-67
2021/06/08 06:30:03;;;;;;;;;;;;;;;;;;2138220;67;1954;-66
2021/06/08 06:32:28;;;;;;;;;;;;;;;;;;2138702;67;1696;-66
2021/06/08 06:34:53;;;;;;;;;;;;;;;;;;2138238;67;1128;-66
2021/06/08 06:37:20;;;;;;;;;;;;;;;;;;2139054;67;1278;-66
2021/06/08 06:39:45;;;;;;;;;;;;;;;;;;2139398;67;1172;-66
2021/06/08 06:42:13;;;;;;;;;;;;;;;;;;2138447;67;1215;-66
2021/06/08 06:44:40;;;;;;;;;;;;;;;;;;2138618;59;1218;-66
2021/06/08 06:47:05;;;;;;;;;;;;;;;;;;2136673;59;1188;-66
2021/06/08 06:49:32;;;;;;;;;;;;;;;;;;2138336;67;1923;-67
2021/06/08 06:51:57;;;;;;;;;;;;;;;;;;2138606;67;1182;-65
2021/06/08 06:54:23;;;;;;;;;;;;;;;;;;2138547;67;1208;-67
2021/06/08 06:56:48;;;;;;;;;;;;;;;;;;2138510;67;1195;-66
2021/06/08 06:59:14;;;;;;;;;;;;;;;;;;2138630;67;1141;-66
2021/06/08 07:01:41;;;;;;;;;;;;;;;;;;2138519;67;1242;-66
2021/06/08 07:04:06;;;;;;;;;;;;;;;;;;2138989;67;1262;-66
2021/06/08 07:06:31;;;;;;;;;;;;;;;;;;2138871;67;1203;-66
2021/06/08 07:08:57;;;;;;;;;;;;;;;;;;2137795;67;2018;-67
2021/06/08 07:11:23;;;;;;;;;;;;;;;;;;2139658;67;1133;-66
2021/06/08 07:13:49;;;;;;;;;;;;;;;;;;2137427;67;1231;-66
2021/06/08 07:16:14;;;;;;;;;;;;;;;;;;2140468;59;1512;-67
2021/06/08 07:18:41;;;;;;;;;;;;;;;;;;2137654;67;1140;-67
2021/06/08 07:21:06;;;;;;;;;;;;;;;;;;2138612;67;1227;-67
2021/06/08 07:23:32;;;;;;;;;;;;;;;;;;2137820;67;1210;-67
2021/06/08 07:25:58;;;;;;;;;;;;;;;;;;2138766;67;1377;-67
2021/06/08 07:28:24;;;;;;;;;;;;;;;;;;2138962;59;1979;-67
2021/06/08 07:30:49;;;;;;;;;;;;;;;;;;2139136;67;1181;-65
2021/06/08 07:33:25;;;;;;;;;;;;;;;;;;2138815;67;1229;-67
2021/06/08 07:36:08;;;;;;;;;;;;;;;;;;2139422;67;1144;-65
2021/06/08 07:38:52;;;;;;;;;;;;;;;;;;2138786;67;1883;-66
2021/06/08 07:41:22;;;;;;;;;;;;;;;;;;2139750;67;1283;-69
2021/06/08 07:43:51;;;;;;;;;;;;;;;;;;2137960;59;1201;-67
2021/06/08 07:46:18;;;;;;;;;;;;;;;;;;2138718;67;1154;-67
2021/06/08 07:48:44;;;;;;;;;;;;;;;;;;2138411;67;1968;-66
2021/06/08 07:51:10;;;;;;;;;;;;;;;;;;2138423;67;1148;-67
2021/06/08 07:53:36;;;;;;;;;;;;;;;;;;2138753;67;1241;-66
2021/06/08 07:56:01;;;;;;;;;;;;;;;;;;2138996;60;1202;-67
2021/06/08 07:58:27;;;;;;;;;;;;;;;;;;2138261;67;1227;-66
2021/06/08 08:00:53;;;;;;;;;;;;;;;;;;2138158;67;1171;-66
2021/06/08 08:03:29;;;;;;;;;;;;;;;;;;2138291;67;1143;-67
2021/06/08 08:05:54;;;;;;;;;;;;;;;;;;2137296;67;1178;-66
2021/06/08 08:08:20;;;;;;;;;;;;;;;;;;2138375;59;1920;-66
2021/06/08 08:10:46;;;;;;;;;;;;;;;;;;2137941;67;1475;-67
2021/06/08 08:13:15;;;;;;;;;;;;;;;;;;2138490;67;1178;-65
2021/06/08 08:15:43;;;;;;;;;;;;;;;;;;2139379;67;1310;-66
2021/06/08 08:18:08;;;;;;;;;;;;;;;;;;2138596;59;1187;-67
2021/06/08 08:20:51;;;;;;;;;;;;;;;;;;2138161;67;1170;-65
2021/06/08 08:23:17;;;;;;;;;;;;;;;;;;2138506;67;1133;-67
2021/06/08 08:25:43;;;;;;;;;;;;;;;;;;2137974;67;1355;-67
2021/06/08 08:28:09;;;;;;;;;;;;;;;;;;2138615;67;1917;-67
2021/06/08 08:30:35;;;;;;;;;;;;;;;;;;2137204;67;1288;-66
2021/06/08 08:33:00;;;;;;;;;;;;;;;;;;2138516;67;1089;-66
2021/06/08 08:35:25;;;;;;;;;;;;;;;;;;2138316;67;1258;-67
2021/06/08 08:37:51;;;;;;;;;;;;;;;;;;2137694;67;1056;-66
2021/06/08 08:40:17;;;;;;;;;;;;;;;;;;2138265;67;1136;-67
2021/06/08 08:42:43;;;;;;;;;;;;;;;;;;2137934;67;1166;-67
2021/06/08 08:45:09;;;;;;;;;;;;;;;;;;2135494;59;1383;-66
2021/06/08 08:47:34;;;;;;;;;;;;;;;;;;2136422;59;1265;-68
2021/06/08 08:49:59;;;;;;;;;;;;;;;;;;2137415;67;1925;-68
2021/06/08 08:52:25;;;;;;;;;;;;;;;;;;2139316;59;1135;-67
2021/06/08 08:54:50;;;;;;;;;;;;;;;;;;2137615;67;1315;-67
2021/06/08 08:57:18;;;;;;;;;;;;;;;;;;2138547;67;1144;-67
2021/06/08 08:59:44;;;;;;;;;;;;;;;;;;2137910;67;1184;-67
2021/06/08 09:02:10;;;;;;;;;;;;;;;;;;2136123;67;1180;-67
2021/06/08 09:04:36;;;;;;;;;;;;;;;;;;2137799;67;1262;-67
2021/06/08 09:07:01;;;;;;;;;;;;;;;;;;2137413;67;1796;-66
2021/06/08 09:09:27;;;;;;;;;;;;;;;;;;2137130;67;1919;-67
2021/06/08 09:11:53;;;;;;;;;;;;;;;;;;2137790;67;1211;-67
2021/06/08 09:14:18;;;;;;;;;;;;;;;;;;2137781;67;1270;-67
2021/06/08 09:16:43;;;;;;;;;;;;;;;;;;2139268;59;1266;-68
2021/06/08 09:19:10;;;;;;;;;;;;;;;;;;2137853;67;1132;-68
2021/06/08 09:21:38;;;;;;;;;;;;;;;;;;2138060;67;1187;-68
2021/06/08 09:24:15;;;;;;;;;;;;;;;;;;2138470;67;1276;-67
2021/06/08 09:26:53;;;;;;;;;;;;;;;;;;2137949;67;1248;-68
2021/06/08 09:29:30;;;;;;;;;;;;;;;;;;2138824;67;1916;-67
2021/06/08 09:32:14;;;;;;;;;;;;;;;;;;2137842;67;1148;-67
2021/06/08 09:34:43;;;;;;;;;;;;;;;;;;2137720;67;1274;-67
2021/06/08 09:37:08;;;;;;;;;;;;;;;;;;2138182;67;1211;-67
2021/06/08 09:39:33;;;;;;;;;;;;;;;;;;2138905;67;1191;-67
2021/06/08 09:41:58;;;;;;;;;;;;;;;;;;2138308;67;1163;-67
2021/06/08 09:44:23;;;;;;;;;;;;;;;;;;2138433;59;1600;-68
2021/06/08 09:46:53;;;;;;;;;;;;;;;;;;2138837;67;1176;-67
2021/06/08 09:49:18;;;;;;;;;;;;;;;;;;2138242;67;1976;-67
2021/06/08 09:52:03;;;;;;;;;;;;;;;;;;2139235;67;1290;-68
2021/06/08 09:54:45;;;;;;;;;;;;;;;;;;2138165;67;1222;-68
2021/06/08 09:57:18;;;;;;;;;;;;;;;;;;2138731;67;1176;-67
2021/06/08 09:59:58;;;;;;;;;;;;;;;;;;2138610;67;1161;-67
2021/06/08 10:02:26;;;;;;;;;;;;;;;;;;2138313;67;1150;-67
2021/06/08 10:04:52;;;;;;;;;;;;;;;;;;2138796;67;1150;-67
2021/06/08 10:07:30;;;;;;;;;;;;;;;;;;2139699;59;1421;-67
2021/06/08 10:10:04;;;;;;;;;;;;;;;;;;2138356;67;1984;-67
2021/06/08 10:12:29;;;;;;;;;;;;;;;;;;2138662;67;1212;-67
2021/06/08 10:15:03;;;;;;;;;;;;;;;;;;2138854;59;1188;-67
2021/06/08 10:17:28;;;;;;;;;;;;;;;;;;2139079;67;1240;-67
2021/06/08 10:19:54;;;;;;;;;;;;;;;;;;2138782;67;1057;-67
2021/06/08 10:22:29;;;;;;;;;;;;;;;;;;2139058;67;1163;-67
2021/06/08 10:24:55;;;;;;;;;;;;;;;;;;2138189;67;1159;-67
2021/06/08 10:27:20;;;;;;;;;;;;;;;;;;2139787;67;1146;-68
2021/06/08 10:29:45;;;;;;;;;;;;;;;;;;2136127;67;2439;-67
2021/06/08 10:32:10;;;;;;;;;;;;;;;;;;2138703;67;1183;-68
2021/06/08 10:34:37;;;;;;;;;;;;;;;;;;2139257;67;1201;-66
2021/06/08 10:37:03;;;;;;;;;;;;;;;;;;2137350;67;1200;-67
2021/06/08 10:39:29;;;;;;;;;;;;;;;;;;2139337;67;1218;-67
2021/06/08 10:41:57;;;;;;;;;;;;;;;;;;2139366;67;1167;-68
2021/06/08 10:44:24;;;;;;;;;;;;;;;;;;2139756;59;2484;-67
2021/06/08 10:46:53;;;;;;;;;;;;;;;;;;2137831;59;1440;-67
2021/06/08 10:49:35;;;;;;;;;;;;;;;;;;2138606;59;1935;-67
2021/06/08 10:52:08;;;;;;;;;;;;;;;;;;2138491;59;1216;-68
2021/06/08 10:54:54;;;;;;;;;;;;;;;;;;2138813;67;1222;-67
2021/06/08 10:57:20;;;;;;;;;;;;;;;;;;2137269;67;2145;-67
2021/06/08 10:59:46;;;;;;;;;;;;;;;;;;2138579;67;1179;-69
2021/06/08 11:02:12;;;;;;;;;;;;;;;;;;2137934;59;1221;-67
2021/06/08 11:04:48;;;;;;;;;;;;;;;;;;2138890;67;1198;-67
2021/06/08 11:07:13;;;;;;;;;;;;;;;;;;2137784;67;1160;-66
2021/06/08 11:09:39;;;;;;;;;;;;;;;;;;2139383;67;1979;-67
2021/06/08 11:12:07;;;;;;;;;;;;;;;;;;2139258;67;1166;-67
2021/06/08 11:14:34;;;;;;;;;;;;;;;;;;2139269;67;1190;-68
2021/06/08 11:17:01;;;;;;;;;;;;;;;;;;2139642;59;1497;-67
2021/06/08 11:19:52;;;;;;;;;;;;;;;;;;2138473;59;1389;-67
2021/06/08 11:22:20;;;;;;;;;;;;;;;;;;2137264;67;1845;-67
2021/06/08 11:24:47;;;;;;;;;;;;;;;;;;2138308;67;1161;-67
2021/06/08 11:27:12;;;;;;;;;;;;;;;;;;2138064;67;2120;-68
2021/06/08 11:29:45;;;;;;;;;;;;;;;;;;2139157;59;1978;-67
2021/06/08 11:32:11;;;;;;;;;;;;;;;;;;2138750;67;1519;-67
2021/06/08 11:34:55;;;;;;;;;;;;;;;;;;2138074;67;1186;-67
2021/06/08 11:37:39;;;;;;;;;;;;;;;;;;2138237;67;1116;-67
2021/06/08 11:40:30;;;;;;;;;;;;;;;;;;2138646;67;1132;-67
2021/06/08 11:42:55;;;;;;;;;;;;;;;;;;2139027;59;1728;-67
2021/06/08 11:45:27;;;;;;;;;;;;;;;;;;2138872;59;1229;-67
2021/06/08 11:47:52;;;;;;;;;;;;;;;;;;2138057;67;1287;-67
2021/06/08 11:50:36;;;;;;;;;;;;;;;;;;2138138;67;1992;-67
2021/06/08 11:53:05;;;;;;;;;;;;;;;;;;2140033;67;1141;-67
2021/06/08 11:55:30;;;;;;;;;;;;;;;;;;2137921;67;1220;-68
2021/06/08 11:57:55;;;;;;;;;;;;;;;;;;2139534;67;1292;-68
2021/06/08 12:00:40;;;;;;;;;;;;;;;;;;2137863;67;1276;-67
2021/06/08 12:03:23;;;;;;;;;;;;;;;;;;2139753;67;2219;-68
2021/06/08 12:05:48;;;;;;;;;;;;;;;;;;2138914;67;1164;-67
2021/06/08 12:08:21;;;;;;;;;;;;;;;;;;2138027;59;1931;-68
2021/06/08 12:10:48;;;;;;;;;;;;;;;;;;2138636;67;1206;-67
2021/06/08 12:13:13;;;;;;;;;;;;;;;;;;2134374;67;1537;-68
2021/06/08 12:15:46;;;;;;;;;;;;;;;;;;2139165;59;1230;-67
2021/06/08 12:18:15;;;;;;;;;;;;;;;;;;2138802;67;1224;-67
2021/06/08 12:20:41;;;;;;;;;;;;;;;;;;2137997;59;1488;-67
2021/06/08 12:23:07;;;;;;;;;;;;;;;;;;2139183;67;1139;-67
2021/06/08 12:25:33;;;;;;;;;;;;;;;;;;2138589;67;1251;-67
2021/06/08 12:27:58;;;;;;;;;;;;;;;;;;2138786;67;1180;-67
2021/06/08 12:30:25;;;;;;;;;;;;;;;;;;2138009;67;2000;-68
2021/06/08 12:32:52;;;;;;;;;;;;;;;;;;2138825;67;1370;-67
2021/06/08 12:35:47;;;;;;;;;;;;;;;;;;2138706;67;1207;-67
2021/06/08 12:38:16;;;;;;;;;;;;;;;;;;2134867;67;1456;-67
2021/06/08 12:40:43;;;;;;;;;;;;;;;;;;2138401;67;1175;-68
2021/06/08 12:43:08;;;;;;;;;;;;;;;;;;2137494;67;1175;-67
2021/06/08 12:45:33;;;;;;;;;;;;;;;;;;2138597;59;1184;-67
2021/06/08 12:47:59;;;;;;;;;;;;;;;;;;2138300;59;1407;-67
2021/06/08 12:50:35;;;;;;;;;;;;;;;;;;2137688;67;1944;-67
2021/06/08 12:53:01;;;;;;;;;;;;;;;;;;2138310;67;1181;-67
2021/06/08 12:55:28;;;;;;;;;;;;;;;;;;2138196;67;1297;-66
2021/06/08 12:57:57;;;;;;;;;;;;;;;;;;2138471;67;1171;-67
2021/06/08 13:00:23;;;;;;;;;;;;;;;;;;2138292;67;1073;-66
2021/06/08 13:02:49;;;;;;;;;;;;;;;;;;2138448;67;1170;-67
2021/06/08 13:05:14;;;;;;;;;;;;;;;;;;2138264;67;1207;-68
2021/06/08 13:07:42;;;;;;;;;;;;;;;;;;2138256;67;1168;-68
2021/06/08 13:10:11;;;;;;;;;;;;;;;;;;2137842;67;1929;-68
2021/06/08 13:12:47;;;;;;;;;;;;;;;;;;2138017;67;1228;-67
2021/06/08 13:15:17;;;;;;;;;;;;;;;;;;2138507;59;1315;-67
2021/06/08 13:17:42;;;;;;;;;;;;;;;;;;2138986;67;1183;-68
2021/06/08 13:20:28;;;;;;;;;;;;;;;;;;2138689;67;1135;-67
2021/06/08 13:22:53;;;;;;;;;;;;;;;;;;2138534;67;1156;-67
2021/06/08 13:25:26;;;;;;;;;;;;;;;;;;2138535;67;1166;-68
2021/06/08 13:27:53;;;;;;;;;;;;;;;;;;2138293;67;1198;-67
2021/06/08 13:30:19;;;;;;;;;;;;;;;;;;2138998;59;1928;-67
2021/06/08 13:32:45;;;;;;;;;;;;;;;;;;2138174;67;1261;-68
2021/06/08 13:35:18;;;;;;;;;;;;;;;;;;2138636;67;1232;-67
2021/06/08 13:37:43;;;;;;;;;;;;;;;;;;2139049;67;1239;-66
2021/06/08 13:40:09;;;;;;;;;;;;;;;;;;2135438;67;1176;-67
2021/06/08 13:42:34;;;;;;;;;;;;;;;;;;2139978;67;1128;-66
2021/06/08 13:45:01;;;;;;;;;;;;;;;;;;2138414;59;1192;-68
2021/06/08 13:47:29;;;;;;;;;;;;;;;;;;2139798;67;1177;-67
2021/06/08 13:49:55;;;;;;;;;;;;;;;;;;2140622;59;2062;-67
2021/06/08 13:52:20;;;;;;;;;;;;;;;;;;2140513;67;1164;-67
2021/06/08 13:54:45;;;;;;;;;;;;;;;;;;2138241;59;1180;-66
2021/06/08 13:57:19;;;;;;;;;;;;;;;;;;2138726;67;1185;-68
2021/06/08 14:02:39;;;;;;;;;;;;;;;;;;2138126;59;1144;-67
2021/06/08 14:05:04;;;;;;;;;;;;;;;;;;2138652;67;1235;-67
2021/06/08 14:07:30;;;;;;;;;;;;;;;;;;2138875;67;1382;-67
2021/06/08 14:09:55;;;;;;;;;;;;;;;;;;2137960;67;1988;-66
2021/06/08 14:12:20;;;;;;;;;;;;;;;;;;2139893;67;1141;-68
2021/06/08 14:14:46;;;;;;;;;;;;;;;;;;2136583;59;1200;-67
2021/06/08 14:17:18;;;;;;;;;;;;;;;;;;2138425;67;1151;-67
2021/06/08 14:19:44;;;;;;;;;;;;;;;;;;2139044;67;1180;-67
2021/06/08 14:22:10;;;;;;;;;;;;;;;;;;2137655;67;1052;-67
2021/06/08 14:24:37;;;;;;;;;;;;;;;;;;2139547;67;1554;-67
2021/06/08 14:27:03;;;;;;;;;;;;;;;;;;2138636;67;1156;-67
2021/06/08 14:29:28;;;;;;;;;;;;;;;;;;2138786;67;1945;-67
2021/06/08 14:31:53;;;;;;;;;;;;;;;;;;2137823;67;1440;-68
2021/06/08 14:34:18;;;;;;;;;;;;;;;;;;2137988;67;1267;-67
2021/06/08 14:36:43;;;;;;;;;;;;;;;;;;2139422;67;1215;-67
2021/06/08 14:39:09;;;;;;;;;;;;;;;;;;2137103;67;1172;-68
2021/06/08 14:41:34;;;;;;;;;;;;;;;;;;2138554;67;1145;-67
2021/06/08 14:44:00;;;;;;;;;;;;;;;;;;2135222;59;1265;-66
2021/06/08 14:46:29;;;;;;;;;;;;;;;;;;2138884;67;971;-66
2021/06/08 14:48:55;;;;;;;;;;;;;;;;;;2140058;59;1997;-68
2021/06/08 14:51:22;;;;;;;;;;;;;;;;;;2137774;67;1155;-67
2021/06/08 14:53:47;;;;;;;;;;;;;;;;;;2138722;67;1255;-68
2021/06/08 14:56:12;;;;;;;;;;;;;;;;;;2138802;67;1203;-67
2021/06/08 14:58:37;;;;;;;;;;;;;;;;;;2137711;67;1112;-67
2021/06/08 15:01:03;;;;;;;;;;;;;;;;;;2138940;67;1179;-67
2021/06/08 15:03:28;;;;;;;;;;;;;;;;;;2137633;67;1253;-67
2021/06/08 15:05:54;;;;;;;;;;;;;;;;;;2138219;67;1364;-67
2021/06/08 15:08:19;;;;;;;;;;;;;;;;;;2137848;67;1196;-67
2021/06/08 15:10:45;;;;;;;;;;;;;;;;;;2136504;67;1411;-68
2021/06/08 15:13:10;;;;;;;;;;;;;;;;;;2139678;67;1162;-67
2021/06/08 15:15:37;;;;;;;;;;;;;;;;;;2137337;59;1262;-67
2021/06/08 15:18:03;;;;;;;;;;;;;;;;;;2138639;67;1003;-67
2021/06/08 15:20:32;;;;;;;;;;;;;;;;;;2139086;67;1134;-67
2021/06/08 15:22:57;;;;;;;;;;;;;;;;;;2132385;59;1295;-67
2021/06/08 15:25:23;;;;;;;;;;;;;;;;;;2133334;59;1574;-67
2021/06/08 15:27:49;;;;;;;;;;;;;;;;;;2137659;67;1062;-67
2021/06/08 15:30:15;;;;;;;;;;;;;;;;;;2137784;59;1928;-68
2021/06/08 15:32:40;;;;;;;;;;;;;;;;;;2138383;67;1167;-67
2021/06/08 15:35:06;;;;;;;;;;;;;;;;;;2137498;67;1273;-67
2021/06/08 15:37:32;;;;;;;;;;;;;;;;;;2140086;67;1107;-70
2021/06/08 15:39:57;;;;;;;;;;;;;;;;;;2137047;67;1174;-67
2021/06/08 15:42:22;;;;;;;;;;;;;;;;;;2138121;67;1195;-67
2021/06/08 15:44:48;;;;;;;;;;;;;;;;;;2136747;59;1385;-68
2021/06/08 15:47:14;;;;;;;;;;;;;;;;;;2138616;67;1126;-67
2021/06/08 15:49:39;;;;;;;;;;;;;;;;;;2137462;67;1992;-67
2021/06/08 15:52:05;;;;;;;;;;;;;;;;;;2135287;67;1401;-68
2021/06/08 15:54:30;;;;;;;;;;;;;;;;;;2137720;67;1240;-67
2021/06/08 15:56:55;;;;;;;;;;;;;;;;;;2138289;67;1230;-67
2021/06/08 15:59:20;;;;;;;;;;;;;;;;;;2137748;67;1132;-66
2021/06/08 16:01:45;;;;;;;;;;;;;;;;;;2137783;67;1198;-67
2021/06/08 16:04:10;;;;;;;;;;;;;;;;;;2138410;67;1258;-66
2021/06/08 16:06:36;;;;;;;;;;;;;;;;;;2138843;59;1357;-67
2021/06/08 16:09:04;;;;;;;;;;;;;;;;;;2139405;67;1994;-66
2021/06/08 16:11:30;;;;;;;;;;;;;;;;;;2137655;67;1397;-67
2021/06/08 16:13:55;;;;;;;;;;;;;;;;;;2138139;67;1293;-69
2021/06/08 16:16:20;;;;;;;;;;;;;;;;;;2138987;59;1188;-67
2021/06/08 16:18:45;;;;;;;;;;;;;;;;;;2136935;67;1210;-68
2021/06/08 16:21:11;;;;;;;;;;;;;;;;;;2137400;67;1226;-67
2021/06/08 16:23:36;;;;;;;;;;;;;;;;;;2137526;67;1260;-66
2021/06/08 16:26:01;;;;;;;;;;;;;;;;;;2138108;67;1089;-67
2021/06/08 16:28:28;;;;;;;;;;;;;;;;;;2138794;67;1921;-67
2021/06/08 16:30:54;;;;;;;;;;;;;;;;;;2136855;67;1274;-67
2021/06/08 16:33:21;;;;;;;;;;;;;;;;;;2137648;67;1201;-67
2021/06/08 16:35:46;;;;;;;;;;;;;;;;;;2137341;59;1344;-67
2021/06/08 16:38:12;;;;;;;;;;;;;;;;;;2137680;67;1250;-67
2021/06/08 16:40:37;;;;;;;;;;;;;;;;;;2138029;67;1139;-67
2021/06/08 16:43:02;;;;;;;;;;;;;;;;;;2133373;67;1223;-67
2021/06/08 16:45:27;;;;;;;;;;;;;;;;;;2132145;53;2511;-69
2021/06/08 16:47:53;;;;;;;;;;;;;;;;;;2122795;59;1796;-69
2021/06/08 16:50:18;;;;;;;;;;;;;;;;;;2120034;59;1984;-70
2021/06/08 16:55:28;;;;;;;;;;;;;;;;;;2122077;59;1359;-68
2021/06/08 16:57:53;;;;;;;;;;;;;;;;;;2120494;67;1199;-69
2021/06/08 17:00:18;;;;;;;;;;;;;;;;;;2121476;67;1269;-66
2021/06/08 17:02:44;;;;;;;;;;;;;;;;;;2121868;59;1209;-66
2021/06/08 17:05:09;;;;;;;;;;;;;;;;;;2120743;67;1188;-64
2021/06/08 17:07:34;;;;;;;;;;;;;;;;;;2122614;67;1320;-64
2021/06/08 17:10:00;;;;;;;;;;;;;;;;;;2119165;67;1919;-67